Time;durP1;ratioP1;P1;durP2;ratioP2;P2;SDS_P1;SDS_P2;PMS_P1;PMS_P2;Temp;Humidity;BMP_temperature;BMP_pressure;BME280_temperature;BME280_humidity;BME280_pressure;Samples;Min_cycle;Max_cycle;Signal;HPM_P1;HPM_P2
2022/06/23 00:01:00;;;;;;;10.43;5.43;;;;;;;;;;6202076;23;20024;-66
2022/06/23 00:03:30;;;;;;;12.93;5.63;;;;;;;;;;6203709;23;20031;-65
2022/06/23 00:05:58;;;;;;;9.70;6.07;;;;;;;;;;6193170;23;20306;-65
2022/06/23 00:08:24;;;;;;;9.57;5.57;;;;;;;;;;6175029;23;20516;-66
2022/06/23 00:10:53;;;;;;;13.98;5.95;;;;;;;;;;6184223;23;20021;-66
2022/06/23 00:13:22;;;;;;;16.08;6.00;;;;;;;;;;6202383;23;20142;-67
2022/06/23 00:15:50;;;;;;;11.13;5.20;;;;;;;;;;6199335;22;20100;-65
2022/06/23 00:18:18;;;;;;;11.68;6.32;;;;;;;;;;6200463;23;20513;-65
2022/06/23 00:20:53;;;;;;;9.35;5.75;;;;;;;;;;6203994;23;20103;-66
2022/06/23 00:23:21;;;;;;;12.35;4.65;;;;;;;;;;6189704;22;20063;-66
2022/06/23 00:25:48;;;;;;;;;;;;;;;;;;6197392;23;20060;-65
2022/06/23 00:28:19;;;;;;;10.30;5.55;;;;;;;;;;6191520;23;20014;-66
2022/06/23 00:30:50;;;;;;;13.25;6.03;;;;;;;;;;6202766;23;20482;-66
2022/06/23 00:33:21;;;;;;;13.35;5.82;;;;;;;;;;6194468;23;20758;-66
2022/06/23 00:35:49;;;;;;;9.13;5.50;;;;;;;;;;6205383;23;20055;-66
2022/06/23 00:38:25;;;;;;;12.73;5.95;;;;;;;;;;6198605;23;20043;-66
2022/06/23 00:40:51;;;;;;;16.63;6.28;;;;;;;;;;6193325;23;20107;-66
2022/06/23 00:43:18;;;;;;;10.73;6.70;;;;;;;;;;6204660;23;20020;-67
2022/06/23 00:46:04;;;;;;;13.25;6.35;;;;;;;;;;6196283;23;20017;-66
2022/06/23 00:48:40;;;;;;;11.50;6.47;;;;;;;;;;6205162;23;20031;-65
2022/06/23 00:51:10;;;;;;;11.73;6.07;;;;;;;;;;6193041;22;20048;-66
2022/06/23 00:53:49;;;;;;;14.10;6.50;;;;;;;;;;6199887;23;20530;-65
2022/06/23 00:56:32;;;;;;;18.25;6.18;;;;;;;;;;6196748;22;20091;-65
2022/06/23 00:59:17;;;;;;;11.43;6.22;;;;;;;;;;6204300;23;20029;-66
2022/06/23 01:01:51;;;;;;;11.57;6.82;;;;;;;;;;6195323;23;20103;-66
2022/06/23 01:04:29;;;;;;;11.15;6.47;;;;;;;;;;6203053;23;20091;-66
2022/06/23 01:07:02;;;;;;;10.05;6.55;;;;;;;;;;6193047;23;20140;-66
2022/06/23 01:09:45;;;;;;;8.73;5.60;;;;;;;;;;6195407;23;20028;-66
2022/06/23 01:12:41;;;;;;;10.40;6.15;;;;;;;;;;6203658;23;20107;-66
2022/06/23 01:15:07;;;;;;;10.93;6.40;;;;;;;;;;6173267;23;20107;-66
2022/06/23 01:17:47;;;;;;;14.27;6.45;;;;;;;;;;6203475;23;20028;-67
2022/06/23 01:20:20;;;;;;;12.70;6.28;;;;;;;;;;6186950;23;20107;-66
2022/06/23 01:22:50;;;;;;;12.75;7.25;;;;;;;;;;6172153;23;20913;-66
2022/06/23 01:25:42;;;;;;;13.75;7.03;;;;;;;;;;6196248;23;20028;-66
2022/06/23 01:28:08;;;;;;;12.77;6.60;;;;;;;;;;6169108;23;20063;-66
2022/06/23 01:30:45;;;;;;;11.85;6.75;;;;;;;;;;6195991;23;20024;-65
2022/06/23 01:33:14;;;;;;;16.25;7.28;;;;;;;;;;6197041;23;20058;-65
2022/06/23 01:35:44;;;;;;;12.73;6.90;;;;;;;;;;6199199;23;20031;-65
2022/06/23 01:38:13;;;;;;;15.18;7.05;;;;;;;;;;6192569;23;20031;-67
2022/06/23 01:40:47;;;;;;;12.68;7.25;;;;;;;;;;6204111;23;20025;-66
2022/06/23 01:43:14;;;;;;;13.00;6.93;;;;;;;;;;6193331;23;20064;-67
2022/06/23 01:45:45;;;;;;;14.13;7.25;;;;;;;;;;6203895;23;20031;-66
2022/06/23 01:48:51;;;;;;;10.50;5.55;;;;;;;;;;6183307;22;20428;-66
2022/06/23 01:51:05;;;;;;;10.20;6.70;;;;;;;;;;6202499;23;20111;-66
2022/06/23 01:53:33;;;;;;;11.00;7.22;;;;;;;;;;6203570;23;20025;-67
2022/06/23 01:56:06;;;;;;;12.63;6.82;;;;;;;;;;6193180;23;20497;-66
2022/06/23 01:58:39;;;;;;;13.07;7.30;;;;;;;;;;6202620;23;20068;-66
2022/06/23 02:01:08;;;;;;;12.55;6.78;;;;;;;;;;6186058;22;20067;-67
2022/06/23 02:03:40;;;;;;;10.82;6.72;;;;;;;;;;6170739;23;20039;-66
2022/06/23 02:06:35;;;;;;;12.13;7.28;;;;;;;;;;6196083;23;20072;-67
2022/06/23 02:09:05;;;;;;;9.45;6.13;;;;;;;;;;6182889;23;20096;-66
2022/06/23 02:11:38;;;;;;;9.15;6.72;;;;;;;;;;6192914;23;21054;-65
2022/06/23 02:14:16;;;;;;;15.73;7.00;;;;;;;;;;6202927;23;20711;-66
2022/06/23 02:16:50;;;;;;;13.30;6.85;;;;;;;;;;6198897;23;20099;-66
2022/06/23 02:19:19;;;;;;;14.68;8.30;;;;;;;;;;6194787;23;20474;-65
2022/06/23 02:21:49;;;;;;;14.82;7.60;;;;;;;;;;6202899;23;20025;-65
2022/06/23 02:24:34;;;;;;;11.80;6.88;;;;;;;;;;6193116;23;20134;-66
2022/06/23 02:27:20;;;;;;;13.75;7.13;;;;;;;;;;6204010;23;20107;-66
2022/06/23 02:29:55;;;;;;;16.42;7.20;;;;;;;;;;6142101;23;20247;-65
2022/06/23 02:32:40;;;;;;;13.32;7.68;;;;;;;;;;6177342;23;20625;-65
2022/06/23 02:35:21;;;;;;;13.88;7.18;;;;;;;;;;6196341;23;20052;-65
2022/06/23 02:37:47;;;;;;;10.20;7.10;;;;;;;;;;6201905;23;20104;-66
2022/06/23 02:40:15;;;;;;;12.32;8.00;;;;;;;;;;6193927;23;20052;-65
2022/06/23 02:42:41;;;;;;;13.80;7.28;;;;;;;;;;6194513;23;20318;-66
2022/06/23 02:45:08;;;;;;;13.75;7.82;;;;;;;;;;6197418;23;20060;-66
2022/06/23 02:47:48;;;;;;;12.02;6.93;;;;;;;;;;6192896;23;20024;-66
2022/06/23 02:50:27;;;;;;;12.35;7.45;;;;;;;;;;6202037;23;20031;-66
2022/06/23 02:53:00;;;;;;;14.10;8.07;;;;;;;;;;6193180;23;20120;-66
2022/06/23 02:55:45;;;;;;;9.38;6.95;;;;;;;;;;6199544;23;20334;-66
2022/06/23 02:58:18;;;;;;;13.90;7.25;;;;;;;;;;6185461;22;20112;-66
2022/06/23 03:00:57;;;;;;;16.90;7.53;;;;;;;;;;6202987;23;20070;-66
2022/06/23 03:03:47;;;;;;;16.27;8.13;;;;;;;;;;6195980;23;20095;-66
2022/06/23 03:06:40;;;;;;;12.60;7.40;;;;;;;;;;6189965;23;20021;-66
2022/06/23 03:09:15;;;;;;;15.73;7.82;;;;;;;;;;6202143;23;20095;-66
2022/06/23 03:11:51;;;;;;;11.70;7.10;;;;;;;;;;6192374;23;20031;-66
2022/06/23 03:14:38;;;;;;;8.98;6.60;;;;;;;;;;6201038;23;20529;-67
2022/06/23 03:17:24;;;;;;;11.65;7.53;;;;;;;;;;6192395;23;20048;-66
2022/06/23 03:20:13;;;;;;;12.55;7.65;;;;;;;;;;6201310;23;20032;-66
2022/06/23 03:22:45;;;;;;;12.75;7.32;;;;;;;;;;6193093;23;20067;-66
2022/06/23 03:25:17;;;;;;;14.20;7.57;;;;;;;;;;6195153;23;20104;-65
2022/06/23 03:27:44;;;;;;;12.75;6.78;;;;;;;;;;6189430;23;20083;-65
2022/06/23 03:30:28;;;;;;;14.85;7.93;;;;;;;;;;6201911;23;20336;-66
2022/06/23 03:32:56;;;;;;;14.52;6.38;;;;;;;;;;6194063;23;20056;-66
2022/06/23 03:35:27;;;;;;;11.95;6.75;;;;;;;;;;6202377;23;20035;-66
2022/06/23 03:38:01;;;;;;;10.65;7.40;;;;;;;;;;6198383;23;20694;-66
2022/06/23 03:43:38;;;;;;;17.05;6.65;;;;;;;;;;6202998;23;20099;-66
2022/06/23 03:46:18;;;;;;;9.50;5.80;;;;;;;;;;6194870;23;20067;-66
2022/06/23 03:48:49;;;;;;;12.95;6.20;;;;;;;;;;6204084;23;20025;-65
2022/06/23 03:51:21;;;;;;;10.82;7.03;;;;;;;;;;6195315;23;20025;-66
2022/06/23 03:53:48;;;;;;;11.40;7.72;;;;;;;;;;6194849;23;20031;-66
2022/06/23 03:56:17;;;;;;;12.45;6.63;;;;;;;;;;6192340;23;20048;-66
2022/06/23 03:58:47;;;;;;;11.88;7.28;;;;;;;;;;6203095;23;20751;-66
2022/06/23 04:01:36;;;;;;;10.40;7.30;;;;;;;;;;6204081;23;20792;-66
2022/06/23 04:04:05;;;;;;;12.07;6.97;;;;;;;;;;6202164;23;20103;-65
2022/06/23 04:06:31;;;;;;;;;;;;;;;;;;6199717;23;20362;-65
2022/06/23 04:08:57;;;;;;;10.68;7.28;;;;;;;;;;6189066;23;19977;-65
2022/06/23 04:11:45;;;;;;;9.13;6.53;;;;;;;;;;6204027;23;20031;-66
2022/06/23 04:14:20;;;;;;;11.25;6.65;;;;;;;;;;6194662;23;20517;-65
2022/06/23 04:16:49;;;;;;;10.75;6.60;;;;;;;;;;6205939;23;20111;-65
2022/06/23 04:19:24;;;;;;;12.60;7.15;;;;;;;;;;6194183;23;20634;-65
2022/06/23 04:21:57;;;;;;;13.52;7.15;;;;;;;;;;6200090;23;20027;-66
2022/06/23 04:24:25;;;;;;;14.98;7.68;;;;;;;;;;6206296;23;20024;-65
2022/06/23 04:26:53;;;;;;;13.77;7.88;;;;;;;;;;6195014;23;20632;-66
2022/06/23 04:29:20;;;;;;;;;;;;;;;;;;6204000;23;20454;-65
2022/06/23 04:32:06;;;;;;;14.02;7.75;;;;;;;;;;6197494;23;19960;-65
2022/06/23 04:34:35;;;;;;;13.35;6.80;;;;;;;;;;6196459;23;20099;-66
2022/06/23 04:37:01;;;;;;;12.82;7.82;;;;;;;;;;6167393;23;20025;-65
2022/06/23 04:39:42;;;;;;;13.35;8.15;;;;;;;;;;6204121;23;20107;-66
2022/06/23 04:42:25;;;;;;;13.75;8.10;;;;;;;;;;6200199;23;20508;-64
2022/06/23 04:44:55;;;;;;;12.93;8.63;;;;;;;;;;6204673;23;20032;-65
2022/06/23 04:47:23;;;;;;;14.93;7.60;;;;;;;;;;6195379;23;20025;-65
2022/06/23 04:49:53;;;;;;;14.32;8.20;;;;;;;;;;6189707;23;20465;-65
2022/06/23 04:52:25;;;;;;;13.43;6.75;;;;;;;;;;6203547;23;20107;-66
2022/06/23 04:54:58;;;;;;;12.10;7.93;;;;;;;;;;6194730;23;20028;-66
2022/06/23 04:57:28;;;;;;;13.70;7.53;;;;;;;;;;6203418;23;20442;-66
2022/06/23 04:59:56;;;;;;;13.98;7.32;;;;;;;;;;6189661;23;20380;-65
2022/06/23 05:02:42;;;;;;;9.50;6.60;;;;;;;;;;6198185;23;20060;-66
2022/06/23 05:05:14;;;;;;;12.20;7.78;;;;;;;;;;6203388;23;20527;-66
2022/06/23 05:07:41;;;;;;;10.15;5.90;;;;;;;;;;6198984;23;20474;-65
2022/06/23 05:10:15;;;;;;;11.85;7.85;;;;;;;;;;6204050;23;20060;-66
2022/06/23 05:12:44;;;;;;;10.25;6.47;;;;;;;;;;6196701;23;20144;-66
2022/06/23 05:15:10;;;;;;;11.57;6.80;;;;;;;;;;6197091;23;20027;-65
2022/06/23 05:17:41;;;;;;;9.80;6.88;;;;;;;;;;6192021;23;20395;-66
2022/06/23 05:20:08;;;;;;;11.05;7.88;;;;;;;;;;6203574;23;20228;-65
2022/06/23 05:22:38;;;;;;;11.80;7.25;;;;;;;;;;6200540;23;20024;-66
2022/06/23 05:25:24;;;;;;;12.93;6.85;;;;;;;;;;6204065;23;20107;-66
2022/06/23 05:27:51;;;;;;;10.90;6.05;;;;;;;;;;6199774;23;20458;-65
2022/06/23 05:30:24;;;;;;;11.80;8.07;;;;;;;;;;6190160;23;20406;-66
2022/06/23 05:32:54;;;;;;;9.20;6.45;;;;;;;;;;6204073;23;20430;-66
2022/06/23 05:35:33;;;;;;;13.52;6.80;;;;;;;;;;6194951;23;20054;-66
2022/06/23 05:38:16;;;;;;;17.80;8.05;;;;;;;;;;6203754;23;20068;-66
2022/06/23 05:40:54;;;;;;;12.80;6.95;;;;;;;;;;6197904;23;20109;-66
2022/06/23 05:43:21;;;;;;;14.43;8.98;;;;;;;;;;6196467;23;20100;-66
2022/06/23 05:45:58;;;;;;;12.95;9.45;;;;;;;;;;6197554;23;20376;-66
2022/06/23 05:48:30;;;;;;;11.30;7.65;;;;;;;;;;6203326;23;20024;-66
2022/06/23 05:51:00;;;;;;;11.63;7.53;;;;;;;;;;6203254;23;20025;-66
2022/06/23 05:53:35;;;;;;;13.20;8.30;;;;;;;;;;6194112;23;20103;-65
2022/06/23 05:56:09;;;;;;;12.75;7.50;;;;;;;;;;6194968;23;20120;-65
2022/06/23 05:58:46;;;;;;;13.23;7.15;;;;;;;;;;6197218;22;20020;-66
2022/06/23 06:01:12;;;;;;;12.93;7.05;;;;;;;;;;6203555;23;20029;-66
2022/06/23 06:03:49;;;;;;;10.82;7.60;;;;;;;;;;6196027;23;20148;-66
2022/06/23 06:06:16;;;;;;;12.40;6.82;;;;;;;;;;6206199;23;20032;-66
2022/06/23 06:11:31;;;;;;;13.45;6.95;;;;;;;;;;6204166;23;20025;-65
2022/06/23 06:13:59;;;;;;;13.20;8.07;;;;;;;;;;6205588;23;20096;-66
2022/06/23 06:16:25;;;;;;;7.38;6.22;;;;;;;;;;6196549;23;20048;-66
2022/06/23 06:18:52;;;;;;;11.30;6.38;;;;;;;;;;6198460;23;20100;-65
2022/06/23 06:21:20;;;;;;;16.35;7.60;;;;;;;;;;6190515;23;20365;-66
2022/06/23 06:24:13;;;;;;;11.35;5.88;;;;;;;;;;6204122;23;20024;-65
2022/06/23 06:26:41;;;;;;;16.83;7.57;;;;;;;;;;6158225;23;20055;-65
2022/06/23 06:29:18;;;;;;;7.32;4.85;;;;;;;;;;6203515;23;20100;-65
2022/06/23 06:31:50;;;;;;;12.15;7.38;;;;;;;;;;6193918;22;20458;-65
2022/06/23 06:34:19;;;;;;;11.68;7.22;;;;;;;;;;6196845;23;20059;-65
2022/06/23 06:36:47;;;;;;;10.68;7.40;;;;;;;;;;6202888;23;20123;-65
2022/06/23 06:39:13;;;;;;;10.18;7.60;;;;;;;;;;6193020;23;20060;-65
2022/06/23 06:41:41;;;;;;;12.25;8.40;;;;;;;;;;6202392;23;20075;-66
2022/06/23 06:44:08;;;;;;;15.15;7.13;;;;;;;;;;6195409;23;20127;-65
2022/06/23 06:46:36;;;;;;;14.50;7.00;;;;;;;;;;6197667;23;20034;-65
2022/06/23 06:49:03;;;;;;;11.68;7.40;;;;;;;;;;6189470;23;20067;-65
2022/06/23 06:51:30;;;;;;;9.00;6.82;;;;;;;;;;6202681;23;20075;-65
2022/06/23 06:53:59;;;;;;;11.07;7.00;;;;;;;;;;6203452;23;20067;-65
2022/06/23 06:56:35;;;;;;;9.93;6.10;;;;;;;;;;6195988;22;20523;-66
2022/06/23 06:59:14;;;;;;;9.85;7.13;;;;;;;;;;6202736;23;20020;-65
2022/06/23 07:01:42;;;;;;;11.43;6.65;;;;;;;;;;6186406;23;20480;-65
2022/06/23 07:04:08;;;;;;;;;;;;;;;;;;6202629;23;20396;-65
2022/06/23 07:06:38;;;;;;;9.88;5.95;;;;;;;;;;6190806;23;19920;-65
2022/06/23 07:09:25;;;;;;;14.70;7.30;;;;;;;;;;6173749;23;20055;-65
2022/06/23 07:12:10;;;;;;;8.93;4.60;;;;;;;;;;6201888;23;20036;-65
2022/06/23 07:14:40;;;;;;;13.10;6.60;;;;;;;;;;6164830;23;20518;-65
2022/06/23 07:17:13;;;;;;;8.30;6.28;;;;;;;;;;6195390;23;20615;-65
2022/06/23 07:19:44;;;;;;;13.32;7.00;;;;;;;;;;6193135;23;20028;-65
2022/06/23 07:22:17;;;;;;;9.98;6.53;;;;;;;;;;6202229;23;20463;-65
2022/06/23 07:25:02;;;;;;;10.32;5.68;;;;;;;;;;6194180;23;20059;-65
2022/06/23 07:27:28;;;;;;;7.70;6.05;;;;;;;;;;6199477;23;20107;-65
2022/06/23 07:29:58;;;;;;;10.90;6.68;;;;;;;;;;6186510;23;20024;-65
2022/06/23 07:32:43;;;;;;;10.88;5.28;;;;;;;;;;6201207;23;20433;-64
2022/06/23 07:35:28;;;;;;;9.52;6.35;;;;;;;;;;6202428;23;20154;-65
2022/06/23 07:38:13;;;;;;;11.80;6.57;;;;;;;;;;6200377;23;20052;-66
2022/06/23 07:40:48;;;;;;;11.73;5.88;;;;;;;;;;6201001;23;20405;-66
2022/06/23 07:43:26;;;;;;;13.10;6.38;;;;;;;;;;6187525;22;20086;-66
2022/06/23 07:46:00;;;;;;;15.10;6.45;;;;;;;;;;6196996;23;20088;-65
2022/06/23 07:48:28;;;;;;;9.80;5.60;;;;;;;;;;6190110;23;20152;-66
2022/06/23 07:50:55;;;;;;;11.00;7.10;;;;;;;;;;6201894;23;20025;-66
2022/06/23 07:53:32;;;;;;;15.43;6.93;;;;;;;;;;6190304;22;20603;-65
2022/06/23 07:56:00;;;;;;;9.32;6.40;;;;;;;;;;6195981;23;20472;-67
2022/06/23 07:58:28;;;;;;;9.30;5.68;;;;;;;;;;6195278;23;20116;-66
2022/06/23 08:01:06;;;;;;;10.90;5.30;;;;;;;;;;6190256;23;20024;-66
2022/06/23 08:03:35;;;;;;;12.25;5.75;;;;;;;;;;6200282;23;20025;-66
2022/06/23 08:06:04;;;;;;;8.10;5.10;;;;;;;;;;6190831;23;20095;-67
2022/06/23 08:08:33;;;;;;;9.85;5.53;;;;;;;;;;6201491;23;20067;-65
2022/06/23 08:13:50;;;;;;;12.60;6.63;;;;;;;;;;6197156;23;20128;-66
2022/06/23 08:19:02;;;;;;;9.57;5.60;;;;;;;;;;6202089;23;20028;-66
2022/06/23 08:21:31;;;;;;;12.30;6.57;;;;;;;;;;6201831;23;20120;-66
2022/06/23 08:24:08;;;;;;;8.93;4.40;;;;;;;;;;6188850;23;20024;-67
2022/06/23 08:26:36;;;;;;;9.23;6.13;;;;;;;;;;6202547;23;20144;-66
2022/06/23 08:29:03;;;;;;;15.07;6.00;;;;;;;;;;6190888;22;20525;-66
2022/06/23 08:31:30;;;;;;;9.85;6.55;;;;;;;;;;6200767;23;20028;-66
2022/06/23 08:34:16;;;;;;;13.13;6.45;;;;;;;;;;6188258;22;20020;-66
2022/06/23 08:36:47;;;;;;;8.32;4.60;;;;;;;;;;6195410;23;20056;-66
2022/06/23 08:39:25;;;;;;;10.88;6.68;;;;;;;;;;6199486;23;20574;-65
2022/06/23 08:42:13;;;;;;;8.73;5.18;;;;;;;;;;6200982;23;20095;-66
2022/06/23 08:45:01;;;;;;;9.57;5.82;;;;;;;;;;6201359;23;20104;-66
2022/06/23 08:47:35;;;;;;;10.50;6.07;;;;;;;;;;6191669;23;20094;-66
2022/06/23 08:50:11;;;;;;;12.93;5.45;;;;;;;;;;6191940;23;20420;-66
2022/06/23 08:52:40;;;;;;;12.95;5.72;;;;;;;;;;6193081;22;20056;-66
2022/06/23 08:55:07;;;;;;;10.23;5.72;;;;;;;;;;6202124;23;20108;-66
2022/06/23 08:57:55;;;;;;;9.48;6.05;;;;;;;;;;6193490;23;20031;-66
2022/06/23 09:00:29;;;;;;;11.32;5.28;;;;;;;;;;6201466;23;20103;-66
2022/06/23 09:03:09;;;;;;;11.43;5.53;;;;;;;;;;6190106;23;20064;-66
2022/06/23 09:05:45;;;;;;;8.90;5.38;;;;;;;;;;6196958;23;20025;-66
2022/06/23 09:08:19;;;;;;;15.18;6.63;;;;;;;;;;6194697;23;20498;-66
2022/06/23 09:11:11;;;;;;;11.98;6.40;;;;;;;;;;6202515;23;20466;-66
2022/06/23 09:13:56;;;;;;;12.50;6.10;;;;;;;;;;6202879;23;20098;-65
2022/06/23 09:16:29;;;;;;;10.07;5.40;;;;;;;;;;6193590;23;20139;-65
2022/06/23 09:19:11;;;;;;;11.40;5.25;;;;;;;;;;6196765;23;20033;-66
2022/06/23 09:21:56;;;;;;;10.02;5.55;;;;;;;;;;6192465;23;20107;-65
2022/06/23 09:24:29;;;;;;;12.80;5.70;;;;;;;;;;6202120;23;20441;-66
2022/06/23 09:27:07;;;;;;;12.40;5.70;;;;;;;;;;6165832;23;20032;-65
2022/06/23 09:29:37;;;;;;;11.27;6.40;;;;;;;;;;6202552;23;20514;-66
2022/06/23 09:32:08;;;;;;;14.98;5.72;;;;;;;;;;6182568;23;20458;-66
2022/06/23 09:34:53;;;;;;;12.15;5.97;;;;;;;;;;6201254;23;20067;-66
2022/06/23 09:37:22;;;;;;;10.27;5.35;;;;;;;;;;6192200;22;20044;-65
2022/06/23 09:40:07;;;;;;;11.80;6.45;;;;;;;;;;6202479;23;20786;-65
2022/06/23 09:42:46;;;;;;;14.60;4.88;;;;;;;;;;6203335;23;20096;-66
2022/06/23 09:45:18;;;;;;;13.13;5.07;;;;;;;;;;6187081;23;20060;-66
2022/06/23 09:47:47;;;;;;;10.52;5.68;;;;;;;;;;6197103;23;20024;-66
2022/06/23 09:50:34;;;;;;;17.15;4.90;;;;;;;;;;6191792;23;20025;-67
2022/06/23 09:53:12;;;;;;;9.97;5.00;;;;;;;;;;6203565;23;20025;-66
2022/06/23 09:55:38;;;;;;;;;;;;;;;;;;6193628;23;20305;-65
2022/06/23 09:58:23;;;;;;;10.35;4.38;;;;;;;;;;6173415;23;19927;-66
2022/06/23 10:00:52;;;;;;;9.05;4.65;;;;;;;;;;6188210;23;20539;-65
2022/06/23 10:03:29;;;;;;;12.00;5.20;;;;;;;;;;6202857;23;20024;-67
2022/06/23 10:06:01;;;;;;;13.75;5.65;;;;;;;;;;6204159;23;20390;-67
2022/06/23 10:08:39;;;;;;;16.15;5.75;;;;;;;;;;6194216;22;20031;-67
2022/06/23 10:11:06;;;;;;;15.25;5.65;;;;;;;;;;6204233;23;20020;-67
2022/06/23 10:13:47;;;;;;;12.07;5.78;;;;;;;;;;6186887;22;20664;-67
2022/06/23 10:16:29;;;;;;;14.18;5.70;;;;;;;;;;6202170;23;20020;-67
2022/06/23 10:19:03;;;;;;;9.07;4.60;;;;;;;;;;6193411;23;20048;-67
2022/06/23 10:21:54;;;;;;;10.02;5.35;;;;;;;;;;6202610;23;20071;-67
2022/06/23 10:24:38;;;;;;;11.02;4.97;;;;;;;;;;6168511;23;20724;-66
2022/06/23 10:27:17;;;;;;;15.02;4.75;;;;;;;;;;6197053;23;20107;-67
2022/06/23 10:29:53;;;;;;;11.63;4.65;;;;;;;;;;6190095;23;20108;-67
2022/06/23 10:32:38;;;;;;;13.95;5.38;;;;;;;;;;6201934;23;20060;-67
2022/06/23 10:35:13;;;;;;;14.35;5.00;;;;;;;;;;6192948;23;20079;-66
2022/06/23 10:37:58;;;;;;;11.23;4.50;;;;;;;;;;6200728;23;20095;-68
2022/06/23 10:40:39;;;;;;;9.60;3.65;;;;;;;;;;6196046;23;20111;-66
2022/06/23 10:43:16;;;;;;;12.88;3.97;;;;;;;;;;6190360;23;20504;-67
2022/06/23 10:45:48;;;;;;;10.23;4.45;;;;;;;;;;6200452;23;20056;-67
2022/06/23 10:48:34;;;;;;;10.57;3.33;;;;;;;;;;6190325;23;20028;-67
2022/06/23 10:51:17;;;;;;;9.48;3.17;;;;;;;;;;6201773;23;20112;-67
2022/06/23 10:53:53;;;;;;;7.75;2.90;;;;;;;;;;6186878;23;20245;-66
2022/06/23 10:56:28;;;;;;;10.55;3.38;;;;;;;;;;6194283;23;20399;-66
2022/06/23 10:59:12;;;;;;;12.80;3.80;;;;;;;;;;6190898;23;20075;-66
2022/06/23 11:01:38;;;;;;;8.57;3.70;;;;;;;;;;6201698;23;20108;-67
2022/06/23 11:04:28;;;;;;;11.20;3.45;;;;;;;;;;6191697;23;20043;-67
2022/06/23 11:06:54;;;;;;;9.65;3.40;;;;;;;;;;6201516;23;20473;-66
2022/06/23 11:09:20;;;;;;;10.45;3.40;;;;;;;;;;6194852;23;20056;-67
2022/06/23 11:12:06;;;;;;;8.65;3.45;;;;;;;;;;6190390;23;20099;-65
2022/06/23 11:14:51;;;;;;;12.43;3.85;;;;;;;;;;6201428;23;20107;-66
2022/06/23 11:17:30;;;;;;;11.95;3.70;;;;;;;;;;6190378;23;20025;-66
2022/06/23 11:20:00;;;;;;;14.23;3.88;;;;;;;;;;6201691;23;20060;-65
2022/06/23 11:22:41;;;;;;;10.40;3.65;;;;;;;;;;6184338;22;20025;-66
2022/06/23 11:25:43;;;;;;;9.88;3.33;;;;;;;;;;6196418;23;20071;-66
2022/06/23 11:28:15;;;;;;;11.43;4.25;;;;;;;;;;6099787;23;20025;-67
2022/06/23 11:30:41;;;;;;;7.38;3.70;;;;;;;;;;6109341;23;20053;-67
2022/06/23 11:33:26;;;;;;;10.45;3.47;;;;;;;;;;6101427;23;20022;-66
2022/06/23 11:36:01;;;;;;;9.25;3.50;;;;;;;;;;6103320;23;20032;-66
2022/06/23 11:38:46;;;;;;;10.18;4.13;;;;;;;;;;6099691;23;20117;-67
2022/06/23 11:41:15;;;;;;;8.35;3.67;;;;;;;;;;6107868;23;20644;-67
2022/06/23 11:43:44;;;;;;;11.90;3.65;;;;;;;;;;6108525;23;20101;-66
2022/06/23 11:46:26;;;;;;;12.18;3.90;;;;;;;;;;6099343;23;20061;-66
2022/06/23 11:49:02;;;;;;;8.90;3.95;;;;;;;;;;6085508;23;20296;-66
2022/06/23 11:51:46;;;;;;;12.73;4.25;;;;;;;;;;6089679;23;20030;-66
2022/06/23 11:54:26;;;;;;;9.65;4.00;;;;;;;;;;6108977;23;20105;-66
2022/06/23 11:57:05;;;;;;;10.55;4.00;;;;;;;;;;6101880;23;20026;-67
2022/06/23 11:59:54;;;;;;;12.07;3.75;;;;;;;;;;6109114;23;20122;-66
2022/06/23 12:03:00;;;;;;;11.65;3.55;;;;;;;;;;6160842;22;20025;-66
2022/06/23 12:05:40;;;;;;;10.95;4.20;;;;;;;;;;6119838;23;20028;-66
2022/06/23 12:08:23;;;;;;;7.57;3.58;;;;;;;;;;6190240;22;20103;-66
2022/06/23 12:10:49;;;;;;;11.95;3.75;;;;;;;;;;6202636;23;20025;-66
2022/06/23 12:13:15;;;;;;;10.45;4.00;;;;;;;;;;6197341;23;20382;-66
2022/06/23 12:15:47;;;;;;;11.27;3.40;;;;;;;;;;6172678;23;20137;-67
2022/06/23 12:18:19;;;;;;;9.73;4.10;;;;;;;;;;6194421;23;20533;-66
2022/06/23 12:20:45;;;;;;;10.60;4.15;;;;;;;;;;6185043;23;20074;-66
2022/06/23 12:23:12;;;;;;;11.05;3.92;;;;;;;;;;6202063;23;20590;-66
2022/06/23 12:25:53;;;;;;;8.73;3.92;;;;;;;;;;6192647;23;20020;-66
2022/06/23 12:28:31;;;;;;;12.77;3.50;;;;;;;;;;6203197;23;20103;-67
2022/06/23 12:31:16;;;;;;;12.55;3.78;;;;;;;;;;6193899;23;20020;-66
2022/06/23 12:33:42;;;;;;;11.32;3.65;;;;;;;;;;6194186;23;20307;-67
2022/06/23 12:36:13;;;;;;;15.03;4.73;;;;;;;;;;6201312;23;20076;-66
2022/06/23 12:38:43;;;;;;;8.15;3.60;;;;;;;;;;6195149;23;20278;-67
2022/06/23 12:41:15;;;;;;;10.70;3.63;;;;;;;;;;6203847;23;20074;-67
2022/06/23 12:43:45;;;;;;;7.80;3.50;;;;;;;;;;6194276;23;20077;-67
2022/06/23 12:46:12;;;;;;;8.63;3.72;;;;;;;;;;6196783;23;20079;-67
2022/06/23 12:48:40;;;;;;;10.45;4.20;;;;;;;;;;6189033;23;20043;-66
2022/06/23 12:51:40;;;;;;;18.23;4.60;;;;;;;;;;6201878;23;20362;-67
2022/06/23 12:54:07;;;;;;;12.90;4.27;;;;;;;;;;6114054;23;20022;-66
2022/06/23 12:56:52;;;;;;;12.40;3.70;;;;;;;;;;6202436;23;20127;-66
2022/06/23 12:59:28;;;;;;;13.68;3.92;;;;;;;;;;6199736;23;20100;-65
2022/06/23 13:02:04;;;;;;;11.30;4.20;;;;;;;;;;6189144;22;20112;-67
2022/06/23 13:04:53;;;;;;;9.57;3.63;;;;;;;;;;6203030;23;20025;-67
2022/06/23 13:07:19;;;;;;;11.82;3.22;;;;;;;;;;6191522;23;20404;-67
2022/06/23 13:09:58;;;;;;;9.68;3.42;;;;;;;;;;6176115;23;20024;-67
2022/06/23 13:12:36;;;;;;;11.88;3.30;;;;;;;;;;6185828;23;20035;-68
2022/06/23 13:15:22;;;;;;;10.50;3.30;;;;;;;;;;6197598;23;20108;-68
2022/06/23 13:17:53;;;;;;;10.20;3.20;;;;;;;;;;6193818;23;20025;-68
2022/06/23 13:20:24;;;;;;;16.83;3.40;;;;;;;;;;6201596;23;20024;-67
2022/06/23 13:23:02;;;;;;;14.15;3.50;;;;;;;;;;6192812;23;20484;-67
2022/06/23 13:25:28;;;;;;;;;;;;;;;;;;6201232;23;20055;-66
2022/06/23 13:27:55;;;;;;;10.45;3.20;;;;;;;;;;6194017;23;19955;-67
2022/06/23 13:30:44;;;;;;;15.73;3.50;;;;;;;;;;6195788;23;20131;-66
2022/06/23 13:33:15;;;;;;;10.00;3.60;;;;;;;;;;6202767;23;20028;-67
2022/06/23 13:35:49;;;;;;;11.88;3.17;;;;;;;;;;6165559;23;20512;-66
2022/06/23 13:38:16;;;;;;;10.85;3.10;;;;;;;;;;6201085;23;20428;-67
2022/06/23 13:40:49;;;;;;;10.70;2.65;;;;;;;;;;6186499;23;20027;-66
2022/06/23 13:43:20;;;;;;;13.90;3.38;;;;;;;;;;6195515;23;20137;-67
2022/06/23 13:45:53;;;;;;;6.43;2.72;;;;;;;;;;6203059;23;20538;-67
2022/06/23 13:48:37;;;;;;;13.27;3.40;;;;;;;;;;6196285;23;20541;-66
2022/06/23 13:51:09;;;;;;;11.57;3.28;;;;;;;;;;6202953;23;20883;-67
2022/06/23 13:53:40;;;;;;;14.48;3.40;;;;;;;;;;6188453;23;20330;-67
2022/06/23 13:56:11;;;;;;;14.50;3.63;;;;;;;;;;6167067;23;20387;-67
2022/06/23 13:58:44;;;;;;;12.23;3.28;;;;;;;;;;6191776;22;20497;-67
2022/06/23 14:01:29;;;;;;;11.07;3.72;;;;;;;;;;6202972;23;20115;-67
2022/06/23 14:04:19;;;;;;;13.88;3.42;;;;;;;;;;6192088;23;20485;-67
2022/06/23 14:06:49;;;;;;;9.05;3.03;;;;;;;;;;6190594;23;20620;-66
2022/06/23 14:09:21;;;;;;;14.00;3.30;;;;;;;;;;6182464;22;20393;-65
2022/06/23 14:12:00;;;;;;;8.70;2.92;;;;;;;;;;6200776;23;20132;-68
2022/06/23 14:14:29;;;;;;;10.07;3.20;;;;;;;;;;6202315;23;20021;-66
2022/06/23 14:17:19;;;;;;;13.13;2.90;;;;;;;;;;6190603;23;20057;-66
2022/06/23 14:20:04;;;;;;;13.18;3.13;;;;;;;;;;6158776;23;20020;-67
2022/06/23 14:22:34;;;;;;;11.40;3.25;;;;;;;;;;6184970;23;20064;-67
2022/06/23 14:25:14;;;;;;;9.65;2.78;;;;;;;;;;6196707;23;20028;-66
2022/06/23 14:27:44;;;;;;;13.65;3.17;;;;;;;;;;6191027;23;20082;-67
2022/06/23 14:30:13;;;;;;;10.65;3.30;;;;;;;;;;6202255;23;20052;-66
2022/06/23 14:32:47;;;;;;;12.18;3.38;;;;;;;;;;6192938;23;20458;-67
2022/06/23 14:35:34;;;;;;;14.55;3.45;;;;;;;;;;6197747;23;20877;-67
2022/06/23 14:38:15;;;;;;;9.65;3.00;;;;;;;;;;6187760;23;20120;-67
2022/06/23 14:40:45;;;;;;;10.48;3.17;;;;;;;;;;6201830;23;20597;-67
2022/06/23 14:43:14;;;;;;;8.75;3.30;;;;;;;;;;6202372;23;20100;-67
2022/06/23 14:45:56;;;;;;;11.38;3.95;;;;;;;;;;6196689;23;20418;-67
2022/06/23 14:48:34;;;;;;;9.90;3.10;;;;;;;;;;6201667;23;20025;-67
2022/06/23 14:51:06;;;;;;;9.90;3.25;;;;;;;;;;6184443;23;20024;-68
2022/06/23 14:53:43;;;;;;;12.20;3.83;;;;;;;;;;6202088;23;20031;-68
2022/06/23 14:56:22;;;;;;;11.02;3.67;;;;;;;;;;6191205;23;20220;-67
2022/06/23 14:58:51;;;;;;;10.07;3.35;;;;;;;;;;6202307;23;20516;-67
2022/06/23 15:01:36;;;;;;;8.73;3.05;;;;;;;;;;6190164;23;20021;-67
2022/06/23 15:04:27;;;;;;;9.25;3.33;;;;;;;;;;6191767;23;20251;-67
2022/06/23 15:06:54;;;;;;;8.05;3.70;;;;;;;;;;6149656;23;20051;-67
2022/06/23 15:09:20;;;;;;;10.93;3.15;;;;;;;;;;6199492;23;20403;-67
2022/06/23 15:11:52;;;;;;;10.50;3.43;;;;;;;;;;6201447;23;20119;-67
2022/06/23 15:14:18;;;;;;;13.27;3.78;;;;;;;;;;6191142;23;20318;-66
2022/06/23 15:16:51;;;;;;;10.70;3.22;;;;;;;;;;6197392;23;20095;-67
2022/06/23 15:19:44;;;;;;;9.82;3.35;;;;;;;;;;6186199;23;20378;-67
2022/06/23 15:25:14;;;;;;;9.23;3.58;;;;;;;;;;6190427;23;20099;-67
2022/06/23 15:27:44;;;;;;;8.10;3.50;;;;;;;;;;6201555;23;20645;-66
2022/06/23 15:30:16;;;;;;;10.50;3.70;;;;;;;;;;6185386;23;20024;-68
2022/06/23 15:32:58;;;;;;;13.18;3.67;;;;;;;;;;6195221;23;20509;-66
2022/06/23 15:35:24;;;;;;;12.27;3.63;;;;;;;;;;6196465;23;20083;-67